createdAt,value
2018-12-23T00:00:23.140Z,7.78
2018-12-23T00:01:23.078Z,7.68
2018-12-23T00:02:23.024Z,7.76
2018-12-23T00:03:32.052Z,7.68
2018-12-23T00:04:22.960Z,7.66
2018-12-23T00:05:22.856Z,7.60
2018-12-23T00:06:22.808Z,7.66
2018-12-23T00:07:22.749Z,7.70
2018-12-23T00:08:22.698Z,7.66
2018-12-23T00:09:22.637Z,7.70
2018-12-23T00:10:22.610Z,7.73
2018-12-23T00:11:22.531Z,7.69
2018-12-23T00:12:22.475Z,7.70
2018-12-23T00:13:22.424Z,7.68
2018-12-23T00:14:22.369Z,7.73
2018-12-23T00:15:22.341Z,7.72
2018-12-23T00:16:22.262Z,7.70
2018-12-23T00:17:22.209Z,7.70
2018-12-23T00:18:22.250Z,7.64
2018-12-23T00:19:22.097Z,7.70
2018-12-23T00:20:22.069Z,7.72
2018-12-23T00:21:21.993Z,7.69
2018-12-23T00:22:21.934Z,7.76
2018-12-23T00:23:21.885Z,7.73
2018-12-23T00:24:21.827Z,7.73
2018-12-23T00:25:21.795Z,7.76
2018-12-23T00:26:21.720Z,7.72
2018-12-23T00:27:21.667Z,7.86
2018-12-23T00:28:21.609Z,7.70
2018-12-23T00:29:21.550Z,7.79
2018-12-23T00:30:21.522Z,7.79
2018-12-23T00:31:21.573Z,7.80
2018-12-23T00:32:21.393Z,7.79
2018-12-23T00:33:21.353Z,7.75
2018-12-23T00:34:21.281Z,7.76
2018-12-23T00:35:21.256Z,7.75
2018-12-23T00:36:21.175Z,7.72
2018-12-23T00:37:21.118Z,7.72
2018-12-23T00:38:21.070Z,7.76
2018-12-23T00:39:21.015Z,7.73
2018-12-23T00:40:20.983Z,7.76
2018-12-23T00:41:20.899Z,7.80
2018-12-23T00:42:20.854Z,7.76
2018-12-23T00:43:20.788Z,7.75
2018-12-23T00:44:20.739Z,7.78
2018-12-23T00:45:20.715Z,7.76
2018-12-23T00:46:20.635Z,7.78
2018-12-23T00:47:20.581Z,7.78
2018-12-23T00:48:20.537Z,7.83
2018-12-23T00:49:20.471Z,7.78
2018-12-23T00:50:20.438Z,7.79
2018-12-23T00:51:20.366Z,7.79
2018-12-23T00:52:20.308Z,7.75
2018-12-23T00:53:20.251Z,7.75
2018-12-23T00:54:20.197Z,7.78
2018-12-23T00:55:20.181Z,7.78
2018-12-23T00:56:20.095Z,7.76
2018-12-23T00:57:20.040Z,7.80
2018-12-23T00:58:19.983Z,7.78
2018-12-23T00:59:19.931Z,7.76
2018-12-23T01:00:19.877Z,7.83
2018-12-23T01:01:19.845Z,7.78
2018-12-23T01:02:19.769Z,7.70
2018-12-23T01:03:19.714Z,7.73
2018-12-23T01:04:19.663Z,7.72
2018-12-23T01:05:19.711Z,7.73
2018-12-23T01:06:19.578Z,7.73
2018-12-23T01:07:19.501Z,7.78
2018-12-23T01:08:19.445Z,7.75
2018-12-23T01:09:19.390Z,7.70
2018-12-23T01:10:19.339Z,7.69
2018-12-23T01:11:19.311Z,7.70
2018-12-23T01:12:19.231Z,7.68
2018-12-23T01:13:19.177Z,7.72
2018-12-23T01:14:19.120Z,7.72
2018-12-23T01:15:19.065Z,7.80
2018-12-23T01:16:19.042Z,7.72
2018-12-23T01:17:18.958Z,7.69
2018-12-23T01:18:18.903Z,7.69
2018-12-23T01:19:18.856Z,7.76
2018-12-23T01:20:18.796Z,7.83
2018-12-23T01:21:18.765Z,7.83
2018-12-23T01:22:18.690Z,7.73
2018-12-23T01:23:18.642Z,7.69
2018-12-23T01:24:18.579Z,7.75
2018-12-23T01:25:18.527Z,7.70
2018-12-23T01:26:18.492Z,7.73
2018-12-23T01:27:18.417Z,7.72
2018-12-23T01:28:18.362Z,7.73
2018-12-23T01:29:18.312Z,7.68
2018-12-23T01:30:18.254Z,7.78
2018-12-23T01:31:18.228Z,7.69
2018-12-23T01:32:18.146Z,7.69
2018-12-23T01:33:18.094Z,7.69
2018-12-23T01:34:18.040Z,7.79
2018-12-23T01:35:17.985Z,7.72
2018-12-23T01:36:17.958Z,7.73
2018-12-23T01:37:17.881Z,7.68
2018-12-23T01:38:17.825Z,7.72
2018-12-23T01:39:17.773Z,7.68
2018-12-23T01:40:17.716Z,7.70
2018-12-23T01:41:17.686Z,7.75
2018-12-23T01:42:17.610Z,7.64
2018-12-23T01:43:17.554Z,7.68
2018-12-23T01:44:17.502Z,7.72
2018-12-23T01:45:17.447Z,7.76
2018-12-23T01:46:17.415Z,7.73
2018-12-23T01:47:17.348Z,7.72
2018-12-23T01:48:17.285Z,7.66
2018-12-23T01:49:17.229Z,7.72
2018-12-23T01:50:17.175Z,7.70
2018-12-23T01:51:17.143Z,7.70
2018-12-23T01:52:17.068Z,7.69
2018-12-23T01:53:17.012Z,7.76
2018-12-23T01:54:16.964Z,7.72
2018-12-23T01:55:16.905Z,7.76
2018-12-23T01:56:16.878Z,7.72
2018-12-23T01:57:16.798Z,7.72
2018-12-23T01:58:16.745Z,7.70
2018-12-23T01:59:16.692Z,7.73
2018-12-23T02:00:16.638Z,7.73
2018-12-23T02:01:16.615Z,7.70
2018-12-23T02:02:16.531Z,7.70
2018-12-23T02:03:16.475Z,7.78
2018-12-23T02:04:16.416Z,7.68
2018-12-23T02:05:16.366Z,7.75
2018-12-23T02:06:16.336Z,7.72
2018-12-23T02:07:16.257Z,7.72
2018-12-23T02:08:16.201Z,7.72
2018-12-23T02:09:16.159Z,7.80
2018-12-23T02:10:16.096Z,7.72
2018-12-23T02:11:16.183Z,7.79
2018-12-23T02:12:15.991Z,7.73
2018-12-23T02:13:15.932Z,7.76
2018-12-23T02:14:15.881Z,7.80
2018-12-23T02:15:15.825Z,7.76
2018-12-23T02:16:15.797Z,7.73
2018-12-23T02:17:15.739Z,7.78
2018-12-23T02:18:15.663Z,7.72
2018-12-23T02:19:15.607Z,7.73
2018-12-23T02:20:15.557Z,7.79
2018-12-23T02:21:15.500Z,7.78
2018-12-23T02:22:15.469Z,7.78
2018-12-23T02:23:15.396Z,7.78
2018-12-23T02:24:15.336Z,7.78
2018-12-23T02:25:15.291Z,7.79
2018-12-23T02:26:15.232Z,7.75
2018-12-23T02:27:15.200Z,7.80
2018-12-23T02:28:15.193Z,7.73
2018-12-23T02:29:15.073Z,7.78
2018-12-23T02:30:15.014Z,7.73
2018-12-23T02:31:14.965Z,7.78
2018-12-23T02:32:14.934Z,7.80
2018-12-23T02:33:14.855Z,7.75
2018-12-23T02:34:14.793Z,7.78
2018-12-23T02:35:14.744Z,7.79
2018-12-23T02:36:14.696Z,7.75
2018-12-23T02:37:14.658Z,7.79
2018-12-23T02:38:14.578Z,7.75
2018-12-23T02:39:14.529Z,7.80
2018-12-23T02:40:14.476Z,7.76
2018-12-23T02:41:14.422Z,7.78
2018-12-23T02:42:14.385Z,7.80
2018-12-23T02:43:14.309Z,7.78
2018-12-23T02:44:14.259Z,7.83
2018-12-23T02:45:14.211Z,7.88
2018-12-23T02:46:14.148Z,7.76
2018-12-23T02:47:14.116Z,7.87
2018-12-23T02:48:14.042Z,7.87
2018-12-23T02:49:13.986Z,7.79
2018-12-23T02:50:13.940Z,7.80
2018-12-23T02:51:13.890Z,7.72
2018-12-23T02:52:13.874Z,7.78
2018-12-23T02:53:13.772Z,7.83
2018-12-23T02:54:13.718Z,7.88
2018-12-23T02:55:13.661Z,7.78
2018-12-23T02:56:13.609Z,7.83
2018-12-23T02:57:13.554Z,7.83
2018-12-23T02:58:13.523Z,7.78
2018-12-23T02:59:13.479Z,7.79
2018-12-23T03:00:13.395Z,7.91
2018-12-23T03:01:13.341Z,7.93
2018-12-23T03:02:13.285Z,7.86
2018-12-23T03:03:13.262Z,7.78
2018-12-23T03:04:13.174Z,7.86
2018-12-23T03:05:13.123Z,7.91
2018-12-23T03:06:13.075Z,7.84
2018-12-23T03:07:13.121Z,7.72
2018-12-23T03:08:12.987Z,7.76
2018-12-23T03:09:12.906Z,7.86
2018-12-23T03:10:12.923Z,7.79
2018-12-23T03:11:12.794Z,7.79
2018-12-23T03:12:12.744Z,7.79
2018-12-23T03:13:12.714Z,7.78
2018-12-23T03:14:12.638Z,7.78
2018-12-23T03:15:12.584Z,7.78
2018-12-23T03:16:12.525Z,7.80
2018-12-23T03:17:12.473Z,7.91
2018-12-23T03:18:12.443Z,7.84
2018-12-23T03:19:12.362Z,7.79
2018-12-23T03:20:12.307Z,7.79
2018-12-23T03:21:12.254Z,7.83
2018-12-23T03:22:12.203Z,7.84
2018-12-23T03:23:12.175Z,7.80
2018-12-23T03:24:12.100Z,7.76
2018-12-23T03:25:12.042Z,7.76
2018-12-23T03:26:11.982Z,7.78
2018-12-23T03:27:11.932Z,7.84
2018-12-23T03:28:11.900Z,7.83
2018-12-23T03:29:11.824Z,7.78
2018-12-23T03:30:11.771Z,7.80
2018-12-23T03:31:11.715Z,7.78
2018-12-23T03:32:11.662Z,7.79
2018-12-23T03:33:11.629Z,7.86
2018-12-23T03:34:11.546Z,7.84
2018-12-23T03:35:11.496Z,7.86
2018-12-23T03:36:15.277Z,7.88
2018-12-23T03:37:11.391Z,7.87
2018-12-23T03:38:11.361Z,7.90
2018-12-23T03:39:11.282Z,7.87
2018-12-23T03:40:11.234Z,7.84
2018-12-23T03:41:11.175Z,7.90
2018-12-23T03:42:11.122Z,7.86
2018-12-23T03:43:11.089Z,7.86
2018-12-23T03:44:11.014Z,7.86
2018-12-23T03:45:10.959Z,7.88
2018-12-23T03:46:10.904Z,7.86
2018-12-23T03:47:10.846Z,7.83
2018-12-23T03:48:10.825Z,7.88
2018-12-23T03:49:10.738Z,7.83
2018-12-23T03:50:10.708Z,7.80
2018-12-23T03:51:10.633Z,7.79
2018-12-23T03:52:10.577Z,7.83
2018-12-23T03:53:10.523Z,7.87
2018-12-23T03:54:10.496Z,7.80
2018-12-23T03:55:10.415Z,7.84
2018-12-23T03:56:10.366Z,7.91
2018-12-23T03:57:10.309Z,7.84
2018-12-23T03:58:10.255Z,7.86
2018-12-23T03:59:10.223Z,7.88
2018-12-23T04:00:10.148Z,7.93
2018-12-23T04:01:10.091Z,7.87
2018-12-23T04:02:10.040Z,7.83
2018-12-23T04:03:09.985Z,7.79
2018-12-23T04:04:09.953Z,7.86
2018-12-23T04:05:09.882Z,7.91
2018-12-23T04:06:09.823Z,7.88
2018-12-23T04:07:09.771Z,7.80
2018-12-23T04:08:09.712Z,7.87
2018-12-23T04:09:09.684Z,7.79
2018-12-23T04:10:09.610Z,7.80
2018-12-23T04:11:09.558Z,7.84
2018-12-23T04:12:09.497Z,7.88
2018-12-23T04:13:09.446Z,7.83
2018-12-23T04:14:09.415Z,7.79
2018-12-23T04:15:09.337Z,7.76
2018-12-23T04:16:09.285Z,7.90
2018-12-23T04:17:09.228Z,7.87
2018-12-23T04:18:09.173Z,7.80
2018-12-23T04:19:09.152Z,7.80
2018-12-23T04:20:09.066Z,7.78
2018-12-23T04:21:09.017Z,7.76
2018-12-23T04:22:08.963Z,7.79
2018-12-23T04:23:08.904Z,7.78
2018-12-23T04:24:08.877Z,7.79
2018-12-23T04:25:08.800Z,7.75
2018-12-23T04:26:08.745Z,7.73
2018-12-23T04:27:08.695Z,7.76
2018-12-23T04:28:08.647Z,7.72
2018-12-23T04:29:08.604Z,7.69
2018-12-23T04:30:08.530Z,7.83
2018-12-23T04:31:08.473Z,7.70
2018-12-23T04:32:08.422Z,7.83
2018-12-23T04:33:08.368Z,7.79
2018-12-23T04:34:08.335Z,7.78
2018-12-23T04:35:08.259Z,7.80
2018-12-23T04:36:08.204Z,7.80
2018-12-23T04:37:08.150Z,7.75
2018-12-23T04:38:08.093Z,7.80
2018-12-23T04:39:08.067Z,7.80
2018-12-23T04:40:07.986Z,7.73
2018-12-23T04:41:07.937Z,7.69
2018-12-23T04:42:07.879Z,7.72
2018-12-23T04:43:07.831Z,7.73
2018-12-23T04:44:07.821Z,7.76
2018-12-23T04:45:07.722Z,7.79
2018-12-23T04:46:07.667Z,7.70
2018-12-23T04:47:07.611Z,7.76
2018-12-23T04:48:07.555Z,7.84
2018-12-23T04:49:07.502Z,7.78
2018-12-23T04:50:07.472Z,7.83
2018-12-23T04:51:07.398Z,7.75
2018-12-23T04:52:07.349Z,7.76
2018-12-23T04:53:07.286Z,7.80
2018-12-23T04:54:07.231Z,7.80
2018-12-23T04:55:07.205Z,7.80
2018-12-23T04:56:07.123Z,7.78
2018-12-23T04:57:07.068Z,7.86
2018-12-23T04:58:07.017Z,7.80
2018-12-23T04:59:06.962Z,7.83
2018-12-23T05:00:06.933Z,7.79
2018-12-23T05:01:06.856Z,7.68
2018-12-23T05:02:06.800Z,7.79
2018-12-23T05:03:06.758Z,7.83
2018-12-23T05:04:06.692Z,7.73
2018-12-23T05:05:06.663Z,7.84
2018-12-23T05:06:06.583Z,7.79
2018-12-23T05:07:06.531Z,7.83
2018-12-23T05:08:06.475Z,7.84
2018-12-23T05:09:06.423Z,7.83
2018-12-23T05:10:06.410Z,7.83
2018-12-23T05:11:06.313Z,7.88
2018-12-23T05:12:06.262Z,7.83
2018-12-23T05:13:06.207Z,7.88
2018-12-23T05:14:06.157Z,7.78
2018-12-23T05:15:06.152Z,7.78
2018-12-23T05:16:06.049Z,7.78
2018-12-23T05:17:05.985Z,7.87
2018-12-23T05:18:05.937Z,7.87
2018-12-23T05:19:05.881Z,7.88
2018-12-23T05:20:05.847Z,7.86
2018-12-23T05:21:05.775Z,7.80
2018-12-23T05:22:05.732Z,7.86
2018-12-23T05:23:05.668Z,7.83
2018-12-23T05:24:05.612Z,7.75
2018-12-23T05:25:05.584Z,7.80
2018-12-23T05:26:05.505Z,7.79
2018-12-23T05:27:05.452Z,7.80
2018-12-23T05:28:05.410Z,7.79
2018-12-23T05:29:05.345Z,7.76
2018-12-23T05:30:05.312Z,7.86
2018-12-23T05:31:05.237Z,7.87
2018-12-23T05:32:05.181Z,7.80
2018-12-23T05:33:05.126Z,7.83
2018-12-23T05:34:05.075Z,7.84
2018-12-23T05:35:05.059Z,7.86
2018-12-23T05:36:04.968Z,7.78
2018-12-23T05:37:04.913Z,7.83
2018-12-23T05:38:04.861Z,7.84
2018-12-23T05:39:04.806Z,7.88
2018-12-23T05:40:04.753Z,7.76
2018-12-23T05:41:04.724Z,7.80
2018-12-23T05:42:04.647Z,7.76
2018-12-23T05:43:04.589Z,7.76
2018-12-23T05:44:04.534Z,7.78
2018-12-23T05:45:04.481Z,7.73
2018-12-23T05:46:04.452Z,7.83
2018-12-23T05:47:04.374Z,7.78
2018-12-23T05:48:04.322Z,7.79
2018-12-23T05:49:04.271Z,7.79
2018-12-23T05:50:04.215Z,7.79
2018-12-23T05:51:04.180Z,7.76
2018-12-23T05:52:04.105Z,7.76
2018-12-23T05:53:04.050Z,7.78
2018-12-23T05:54:03.999Z,7.78
2018-12-23T05:55:03.943Z,7.75
2018-12-23T05:56:03.916Z,7.76
2018-12-23T05:57:03.836Z,7.75
2018-12-23T05:58:03.777Z,7.83
2018-12-23T05:59:03.729Z,7.79
2018-12-23T06:00:03.675Z,7.75
2018-12-23T06:01:03.654Z,7.84
2018-12-23T06:02:03.563Z,7.75
2018-12-23T06:03:03.515Z,7.80
2018-12-23T06:04:03.463Z,7.80
2018-12-23T06:05:03.407Z,7.87
2018-12-23T06:06:03.379Z,7.75
2018-12-23T06:07:03.297Z,7.88
2018-12-23T06:08:03.242Z,7.78
2018-12-23T06:09:05.368Z,7.83
2018-12-23T06:10:03.136Z,7.86
2018-12-23T06:11:03.104Z,7.73
2018-12-23T06:12:03.039Z,7.91
2018-12-23T06:13:02.973Z,7.78
2018-12-23T06:14:02.922Z,7.75
2018-12-23T06:15:02.877Z,7.88
2018-12-23T06:16:02.847Z,7.83
2018-12-23T06:17:02.760Z,7.83
2018-12-23T06:18:02.707Z,7.83
2018-12-23T06:19:02.654Z,7.86
2018-12-23T06:20:02.596Z,7.76
2018-12-23T06:21:02.545Z,7.86
2018-12-23T06:22:02.515Z,7.79
2018-12-23T06:23:02.437Z,7.79
2018-12-23T06:24:02.393Z,7.75
2018-12-23T06:25:02.329Z,7.79
2018-12-23T06:26:02.273Z,7.76
2018-12-23T06:27:02.245Z,7.79
2018-12-23T06:28:02.170Z,7.75
2018-12-23T06:29:02.112Z,7.73
2018-12-23T06:30:02.060Z,7.79
2018-12-23T06:31:02.005Z,7.84
2018-12-23T06:32:01.976Z,7.75
2018-12-23T06:33:01.903Z,7.79
2018-12-23T06:34:01.842Z,7.79
2018-12-23T06:35:01.792Z,7.76
2018-12-23T06:36:01.738Z,7.79
2018-12-23T06:37:09.770Z,7.87
2018-12-23T06:38:01.630Z,7.87
2018-12-23T06:39:01.576Z,7.80
2018-12-23T06:40:01.521Z,7.80
2018-12-23T06:41:01.468Z,7.79
2018-12-23T06:42:01.435Z,7.78
2018-12-23T06:43:01.358Z,7.84
2018-12-23T06:44:01.301Z,7.83
2018-12-23T06:45:01.248Z,7.93
2018-12-23T06:46:01.196Z,7.84
2018-12-23T06:47:01.165Z,7.86
2018-12-23T06:48:01.083Z,7.83
2018-12-23T06:49:01.035Z,7.79
2018-12-23T06:50:00.979Z,7.83
2018-12-23T06:51:00.928Z,7.80
2018-12-23T06:52:00.908Z,7.79
2018-12-23T06:53:00.813Z,7.80
2018-12-23T06:54:00.765Z,7.83
2018-12-23T06:55:00.710Z,7.83
2018-12-23T06:56:00.663Z,7.93
2018-12-23T06:57:00.629Z,7.80
2018-12-23T06:58:00.547Z,7.79
2018-12-23T06:59:00.503Z,7.83
2018-12-23T07:00:00.443Z,7.80
2018-12-23T07:01:00.382Z,7.88
2018-12-23T07:02:00.457Z,7.86
2018-12-23T07:03:00.279Z,7.86
2018-12-23T07:04:00.227Z,7.84
2018-12-23T07:05:00.180Z,7.84
2018-12-23T07:06:00.118Z,7.84
2018-12-23T07:07:00.066Z,7.87
2018-12-23T07:08:00.033Z,7.93
2018-12-23T07:08:59.954Z,7.90
2018-12-23T07:09:59.900Z,7.86
2018-12-23T07:10:59.851Z,7.83
2018-12-23T07:11:59.800Z,7.90
2018-12-23T07:12:59.766Z,7.88
2018-12-23T07:13:59.689Z,7.87
2018-12-23T07:14:59.704Z,7.88
2018-12-23T07:15:59.582Z,7.88
2018-12-23T07:16:59.527Z,7.88
2018-12-23T07:17:59.498Z,7.91
2018-12-23T07:18:59.423Z,7.88
2018-12-23T07:19:59.365Z,7.88
2018-12-23T07:20:59.310Z,7.88
2018-12-23T07:21:59.262Z,7.86
2018-12-23T07:22:59.230Z,7.90
2018-12-23T07:23:59.182Z,7.93
2018-12-23T07:24:59.099Z,7.87
2018-12-23T07:25:59.041Z,7.93
2018-12-23T07:26:58.990Z,7.86
2018-12-23T07:27:58.959Z,7.93
2018-12-23T07:28:58.884Z,7.94
2018-12-23T07:29:58.827Z,7.96
2018-12-23T07:30:58.776Z,7.90
2018-12-23T07:31:58.716Z,7.90
2018-12-23T07:32:58.687Z,7.88
2018-12-23T07:33:58.613Z,7.90
2018-12-23T07:34:58.562Z,7.90
2018-12-23T07:35:58.511Z,7.91
2018-12-23T07:36:58.452Z,7.94
2018-12-23T07:37:58.426Z,7.94
2018-12-23T07:38:58.346Z,7.96
2018-12-23T07:39:58.290Z,7.90
2018-12-23T07:40:58.237Z,7.94
2018-12-23T07:41:58.183Z,7.94
2018-12-23T07:42:58.155Z,7.96
2018-12-23T07:43:58.075Z,7.97
2018-12-23T07:44:58.020Z,7.96
2018-12-23T07:45:57.968Z,7.94
2018-12-23T07:46:57.913Z,7.94
2018-12-23T07:47:57.884Z,8.01
2018-12-23T07:48:57.807Z,7.94
2018-12-23T07:49:57.755Z,8.01
2018-12-23T07:50:57.699Z,8.02
2018-12-23T07:51:57.643Z,7.97
2018-12-23T07:52:57.614Z,7.98
2018-12-23T07:53:57.537Z,8.01
2018-12-23T07:54:57.487Z,7.97
2018-12-23T07:55:59.349Z,7.94
2018-12-23T07:56:57.376Z,7.94
2018-12-23T07:57:57.347Z,7.94
2018-12-23T07:58:57.272Z,7.98
2018-12-23T07:59:57.216Z,7.98
2018-12-23T08:00:57.160Z,8.02
2018-12-23T08:01:57.145Z,7.98
2018-12-23T08:02:57.079Z,8.02
2018-12-23T08:03:56.999Z,7.98
2018-12-23T08:04:56.947Z,7.97
2018-12-23T08:05:56.891Z,7.96
2018-12-23T08:06:56.841Z,7.98
2018-12-23T08:07:56.811Z,7.97
2018-12-23T08:08:56.730Z,7.96
2018-12-23T08:09:56.678Z,7.96
2018-12-23T08:10:56.623Z,7.96
2018-12-23T08:11:56.581Z,7.96
2018-12-23T08:12:56.526Z,7.98
2018-12-23T08:13:56.491Z,8.01
2018-12-23T08:14:56.409Z,8.04
2018-12-23T08:15:56.358Z,7.91
2018-12-23T08:16:56.302Z,7.94
2018-12-23T08:17:56.246Z,8.01
2018-12-23T08:18:56.219Z,7.94
2018-12-23T08:19:56.207Z,7.97
2018-12-23T08:20:56.087Z,7.94
2018-12-23T08:21:56.033Z,7.98
2018-12-23T08:22:55.978Z,7.96
2018-12-23T08:23:55.950Z,8.01
2018-12-23T08:24:57.126Z,7.98
2018-12-23T08:25:55.819Z,7.96
2018-12-23T08:26:55.763Z,7.97
2018-12-23T08:27:55.713Z,8.01
2018-12-23T08:28:55.680Z,7.98
2018-12-23T08:29:55.609Z,7.98
2018-12-23T08:30:55.564Z,7.96
2018-12-23T08:31:55.518Z,7.98
2018-12-23T08:32:55.440Z,8.05
2018-12-23T08:33:55.417Z,8.02
2018-12-23T08:34:55.332Z,8.02
2018-12-23T08:35:55.281Z,8.06
2018-12-23T08:36:55.205Z,8.04
2018-12-23T08:37:55.175Z,8.06
2018-12-23T08:38:55.144Z,8.02
2018-12-23T08:39:55.071Z,8.06
2018-12-23T08:40:55.014Z,8.11
2018-12-23T08:41:54.963Z,8.05
2018-12-23T08:42:54.905Z,8.11
2018-12-23T08:43:54.878Z,8.11
2018-12-23T08:44:54.797Z,8.12
2018-12-23T08:45:54.744Z,8.08
2018-12-23T08:46:54.692Z,8.16
2018-12-23T08:47:54.642Z,8.12
2018-12-23T08:48:54.606Z,8.08
2018-12-23T08:49:54.530Z,8.13
2018-12-23T08:50:54.478Z,8.12
2018-12-23T08:51:54.431Z,8.09
2018-12-23T08:52:54.376Z,8.12
2018-12-23T08:53:54.341Z,8.12
2018-12-23T08:54:54.266Z,8.11
2018-12-23T08:55:54.210Z,8.08
2018-12-23T08:56:54.158Z,8.12
2018-12-23T08:57:54.119Z,8.08
2018-12-23T08:58:54.071Z,8.08
2018-12-23T08:59:53.996Z,8.09
2018-12-23T09:00:53.937Z,8.08
2018-12-23T09:01:53.885Z,8.09
2018-12-23T09:02:53.835Z,8.13
2018-12-23T09:03:53.808Z,8.12
2018-12-23T09:04:53.733Z,8.08
2018-12-23T09:05:53.676Z,8.11
2018-12-23T09:06:55.419Z,8.12
2018-12-23T09:07:53.570Z,8.23
2018-12-23T09:08:54.955Z,8.20
2018-12-23T09:09:53.460Z,8.21
2018-12-23T09:10:53.406Z,8.23
2018-12-23T09:11:53.351Z,8.24
2018-12-23T09:12:53.296Z,8.20
2018-12-23T09:13:53.269Z,8.24
2018-12-23T09:14:53.201Z,8.23
2018-12-23T09:15:53.135Z,8.24
2018-12-23T09:16:53.086Z,8.20
2018-12-23T09:17:53.031Z,8.21
2018-12-23T09:18:53.003Z,8.23
2018-12-23T09:19:52.926Z,8.21
2018-12-23T09:20:52.869Z,8.31
2018-12-23T09:21:52.813Z,8.30
2018-12-23T09:22:52.763Z,8.27
2018-12-23T09:23:52.734Z,8.33
2018-12-23T09:24:52.655Z,8.31
2018-12-23T09:25:52.615Z,8.33
2018-12-23T09:26:52.549Z,8.36
2018-12-23T09:27:52.498Z,8.30
2018-12-23T09:28:52.469Z,8.34
2018-12-23T09:29:52.390Z,8.38
2018-12-23T09:30:52.340Z,8.36
2018-12-23T09:31:52.283Z,8.29
2018-12-23T09:32:52.228Z,8.26
2018-12-23T09:33:52.204Z,8.33
2018-12-23T09:34:52.121Z,8.31
2018-12-23T09:35:52.067Z,8.34
2018-12-23T09:36:52.015Z,8.33
2018-12-23T09:37:51.965Z,8.33
2018-12-23T09:38:51.937Z,8.33
2018-12-23T09:39:51.856Z,8.33
2018-12-23T09:40:51.799Z,8.31
2018-12-23T09:41:51.753Z,8.26
2018-12-23T09:42:51.705Z,8.38
2018-12-23T09:43:51.662Z,8.27
2018-12-23T09:44:51.591Z,8.27
2018-12-23T09:45:51.536Z,8.34
2018-12-23T09:46:51.481Z,8.30
2018-12-23T09:47:51.431Z,8.38
2018-12-23T09:48:51.414Z,8.34
2018-12-23T09:49:51.416Z,8.31
2018-12-23T09:50:51.374Z,8.33
2018-12-23T09:51:51.218Z,8.36
2018-12-23T09:52:51.161Z,8.30
2018-12-23T09:53:51.111Z,8.42
2018-12-23T09:54:51.083Z,8.29
2018-12-23T09:55:51.001Z,8.38
2018-12-23T09:56:53.041Z,8.33
2018-12-23T09:57:50.957Z,8.34
2018-12-23T09:58:50.847Z,8.33
2018-12-23T09:59:50.819Z,8.33
2018-12-23T10:00:50.737Z,8.47
2018-12-23T10:01:50.683Z,8.36
2018-12-23T10:02:50.629Z,8.36
2018-12-23T10:03:50.574Z,8.44
2018-12-23T10:04:50.547Z,8.27
2018-12-23T10:05:50.467Z,8.42
2018-12-23T10:06:50.425Z,8.41
2018-12-23T10:07:50.362Z,8.29
2018-12-23T10:08:50.310Z,8.39
2018-12-23T10:09:50.285Z,8.44
2018-12-23T10:10:50.204Z,8.44
2018-12-23T10:11:50.147Z,8.41
2018-12-23T10:12:50.096Z,8.41
2018-12-23T10:13:50.043Z,8.42
2018-12-23T10:14:50.020Z,8.34
2018-12-23T10:15:49.934Z,8.31
2018-12-23T10:16:49.879Z,8.42
2018-12-23T10:17:49.826Z,8.42
2018-12-23T10:18:49.775Z,8.41
2018-12-23T10:19:49.747Z,8.39
2018-12-23T10:20:49.672Z,8.34
2018-12-23T10:21:49.625Z,8.42
2018-12-23T10:22:49.562Z,8.44
2018-12-23T10:23:49.512Z,8.41
2018-12-23T10:24:49.488Z,8.44
2018-12-23T10:25:49.404Z,8.41
2018-12-23T10:26:49.349Z,8.42
2018-12-23T10:27:49.300Z,8.41
2018-12-23T10:28:49.242Z,8.45
2018-12-23T10:29:49.214Z,8.45
2018-12-23T10:30:49.135Z,8.44
2018-12-23T10:31:49.088Z,8.42
2018-12-23T10:32:49.033Z,8.41
2018-12-23T10:33:48.973Z,8.42
2018-12-23T10:34:48.953Z,8.39
2018-12-23T10:35:48.869Z,8.39
2018-12-23T10:36:48.820Z,8.38
2018-12-23T10:37:48.758Z,8.39
2018-12-23T10:38:48.712Z,8.42
2018-12-23T10:39:48.678Z,8.41
2018-12-23T10:40:48.597Z,8.45
2018-12-23T10:41:48.549Z,8.39
2018-12-23T10:42:48.498Z,8.41
2018-12-23T10:43:48.444Z,8.42
2018-12-23T10:44:48.411Z,8.39
2018-12-23T10:45:48.340Z,8.34
2018-12-23T10:46:48.284Z,8.36
2018-12-23T10:47:48.229Z,8.38
2018-12-23T10:48:48.194Z,8.42
2018-12-23T10:49:48.146Z,8.44
2018-12-23T10:50:48.072Z,8.38
2018-12-23T10:51:48.025Z,8.42
2018-12-23T10:52:47.964Z,8.41
2018-12-23T10:53:47.904Z,8.42
2018-12-23T10:54:47.882Z,8.42
2018-12-23T10:55:47.803Z,8.42
2018-12-23T10:56:47.753Z,8.41
2018-12-23T10:57:47.687Z,8.39
2018-12-23T10:58:47.640Z,8.39
2018-12-23T10:59:47.596Z,8.44
2018-12-23T11:00:47.535Z,8.45
2018-12-23T11:01:47.482Z,8.45
2018-12-23T11:02:47.432Z,8.52
2018-12-23T11:03:47.374Z,8.48
2018-12-23T11:04:47.356Z,8.47
2018-12-23T11:05:47.268Z,8.42
2018-12-23T11:06:47.216Z,8.45
2018-12-23T11:07:47.165Z,8.52
2018-12-23T11:08:47.106Z,8.45
2018-12-23T11:09:47.085Z,8.57
2018-12-23T11:10:47.005Z,8.44
2018-12-23T11:11:46.952Z,8.49
2018-12-23T11:12:46.898Z,8.47
2018-12-23T11:13:46.848Z,8.45
2018-12-23T11:14:46.818Z,8.47
2018-12-23T11:15:46.735Z,8.49
2018-12-23T11:16:46.683Z,8.48
2018-12-23T11:17:46.631Z,8.54
2018-12-23T11:18:46.576Z,8.48
2018-12-23T11:19:46.548Z,8.48
2018-12-23T11:20:46.471Z,8.45
2018-12-23T11:21:46.418Z,8.48
2018-12-23T11:22:46.372Z,8.44
2018-12-23T11:23:46.310Z,8.49
2018-12-23T11:24:46.277Z,8.39
2018-12-23T11:25:46.199Z,8.41
2018-12-23T11:26:46.154Z,8.42
2018-12-23T11:27:46.096Z,8.39
2018-12-23T11:28:46.048Z,8.41
2018-12-23T11:29:46.012Z,8.42
2018-12-23T11:30:45.939Z,8.44
2018-12-23T11:31:45.886Z,8.29
2018-12-23T11:32:45.828Z,8.33
2018-12-23T11:33:45.813Z,8.33
2018-12-23T11:34:45.746Z,8.38
2018-12-23T11:35:45.670Z,8.34
2018-12-23T11:36:45.623Z,8.31
2018-12-23T11:37:45.573Z,8.34
2018-12-23T11:38:45.520Z,8.33
2018-12-23T11:39:45.489Z,8.41
2018-12-23T11:40:45.403Z,8.33
2018-12-23T11:41:45.350Z,8.30
2018-12-23T11:42:45.301Z,8.45
2018-12-23T11:43:45.317Z,8.42
2018-12-23T11:44:45.213Z,8.39
2018-12-23T11:45:45.138Z,8.41
2018-12-23T11:46:45.080Z,8.34
2018-12-23T11:47:45.032Z,8.34
2018-12-23T11:48:44.982Z,8.33
2018-12-23T11:49:44.943Z,8.33
2018-12-23T11:50:44.859Z,8.34
2018-12-23T11:51:44.811Z,8.31
2018-12-23T11:52:44.757Z,8.39
2018-12-23T11:53:44.709Z,8.31
2018-12-23T11:54:44.666Z,8.39
2018-12-23T11:55:44.613Z,8.31
2018-12-23T11:56:44.543Z,8.31
2018-12-23T11:57:44.492Z,8.31
2018-12-23T11:58:44.435Z,8.31
2018-12-23T11:59:44.378Z,8.33
2018-12-23T12:00:44.349Z,8.33
2018-12-23T12:01:44.271Z,8.36
2018-12-23T12:02:44.223Z,8.29
2018-12-23T12:03:44.166Z,8.33
2018-12-23T12:04:44.109Z,8.33
2018-12-23T12:05:44.081Z,8.38
2018-12-23T12:06:44.005Z,8.38
2018-12-23T12:07:43.955Z,8.42
2018-12-23T12:08:44.134Z,8.44
2018-12-23T12:09:43.848Z,8.38
2018-12-23T12:10:43.816Z,8.38
2018-12-23T12:11:43.740Z,8.39
2018-12-23T12:12:43.690Z,8.38
2018-12-23T12:13:43.644Z,8.34
2018-12-23T12:14:43.578Z,8.31
2018-12-23T12:15:43.551Z,8.39
2018-12-23T12:16:43.464Z,8.41
2018-12-23T12:17:43.420Z,8.38
2018-12-23T12:18:43.375Z,8.41
2018-12-23T12:19:43.309Z,8.45
2018-12-23T12:20:43.284Z,8.31
2018-12-23T12:21:43.248Z,8.42
2018-12-23T12:22:43.155Z,8.31
2018-12-23T12:23:43.146Z,8.39
2018-12-23T12:24:43.041Z,8.33
2018-12-23T12:25:43.024Z,8.42
2018-12-23T12:26:42.941Z,8.29
2018-12-23T12:27:42.883Z,8.29
2018-12-23T12:28:42.827Z,8.51
2018-12-23T12:29:42.844Z,8.33
2018-12-23T12:30:42.757Z,8.31
2018-12-23T12:31:42.670Z,8.27
2018-12-23T12:32:42.614Z,8.34
2018-12-23T12:33:42.567Z,8.29
2018-12-23T12:34:42.510Z,8.31
2018-12-23T12:35:42.480Z,8.38
2018-12-23T12:36:42.400Z,8.31
2018-12-23T12:37:42.345Z,8.30
2018-12-23T12:38:42.293Z,8.33
2018-12-23T12:39:42.246Z,8.41
2018-12-23T12:40:42.483Z,8.42
2018-12-23T12:41:42.132Z,8.34
2018-12-23T12:42:42.080Z,8.29
2018-12-23T12:43:42.030Z,8.36
2018-12-23T12:44:41.973Z,8.30
2018-12-23T12:45:42.065Z,8.39
2018-12-23T12:46:41.864Z,8.45
2018-12-23T12:47:41.810Z,8.34
2018-12-23T12:48:41.755Z,8.31
2018-12-23T12:49:43.097Z,8.34
2018-12-23T12:50:41.668Z,8.39
2018-12-23T12:51:41.604Z,8.41
2018-12-23T12:52:41.547Z,8.39
2018-12-23T12:53:41.492Z,8.39
2018-12-23T12:54:41.436Z,8.36
2018-12-23T12:55:41.404Z,8.34
2018-12-23T12:56:41.331Z,8.33
2018-12-23T12:57:41.263Z,8.33
2018-12-23T12:58:41.225Z,8.31
2018-12-23T12:59:41.171Z,8.34
2018-12-23T13:00:41.140Z,8.38
2018-12-23T13:01:41.063Z,8.34
2018-12-23T13:02:41.010Z,8.41
2018-12-23T13:03:40.954Z,8.34
2018-12-23T13:04:40.902Z,8.42
2018-12-23T13:05:40.916Z,8.39
2018-12-23T13:06:40.795Z,8.38
2018-12-23T13:07:40.746Z,8.30
2018-12-23T13:08:40.690Z,8.41
2018-12-23T13:09:40.632Z,8.44
2018-12-23T13:10:40.582Z,8.42
2018-12-23T13:11:40.549Z,8.44
2018-12-23T13:12:40.475Z,8.42
2018-12-23T13:13:40.435Z,8.44
2018-12-23T13:14:40.370Z,8.44
2018-12-23T13:15:40.317Z,8.39
2018-12-23T13:16:40.289Z,8.42
2018-12-23T13:17:40.213Z,8.36